Time;durP1;ratioP1;P1;durP2;ratioP2;P2;SDS_P1;SDS_P2;PMS_P1;PMS_P2;Temp;Humidity;BMP_temperature;BMP_pressure;BME280_temperature;BME280_humidity;BME280_pressure;Samples;Min_cycle;Max_cycle;Signal;HPM_P1;HPM_P2
2023/10/17 00:01:55;;;;;;;4.13;1.60;;;;;;;;;;5054272;28;20444;-71
2023/10/17 00:06:48;;;;;;;4.38;1.58;;;;;;;;;;5054352;28;20025;-71
2023/10/17 00:09:21;;;;;;;2.35;1.30;;;;;;;;;;5054268;28;20472;-71
2023/10/17 00:14:23;;;;;;;3.03;1.25;;;;;;;;;;5054363;28;20035;-71
2023/10/17 00:16:50;;;;;;;1.83;1.20;;;;;;;;;;5053988;28;20025;-71
2023/10/17 00:19:18;;;;;;;1.80;0.90;;;;;;;;;;5053826;28;20025;-71
2023/10/17 00:21:45;;;;;;;1.55;1.05;;;;;;;;;;5054276;28;20017;-71
2023/10/17 00:24:11;;;;;;;1.13;0.82;;;;;;;;;;5053938;28;20023;-71
2023/10/17 00:26:39;;;;;;;1.98;0.90;;;;;;;;;;5053984;28;20031;-70
2023/10/17 00:29:05;;;;;;;1.67;0.63;;;;;;;;;;5053980;28;20021;-71
2023/10/17 00:31:32;;;;;;;2.03;0.75;;;;;;;;;;5053682;28;20024;-71
2023/10/17 00:34:12;;;;;;;1.73;0.70;;;;;;;;;;5053709;28;20031;-71
2023/10/17 00:37:00;;;;;;;1.55;0.50;;;;;;;;;;5053331;28;20055;-71
2023/10/17 00:39:30;;;;;;;0.40;0.30;;;;;;;;;;5053652;28;20103;-71
2023/10/17 00:44:33;;;;;;;1.17;0.50;;;;;;;;;;5054130;28;20031;-71
2023/10/17 00:46:59;;;;;;;1.40;0.40;;;;;;;;;;5053541;28;20013;-71
2023/10/17 00:49:29;;;;;;;0.55;0.30;;;;;;;;;;5053437;28;20095;-71
2023/10/17 00:51:56;;;;;;;0.22;0.22;;;;;;;;;;5053642;28;20033;-71
2023/10/17 00:54:26;;;;;;;0.70;0.30;;;;;;;;;;5053337;28;20027;-71
2023/10/17 00:56:55;;;;;;;0.65;0.30;;;;;;;;;;5053345;28;20071;-71
2023/10/17 00:59:24;;;;;;;0.20;0.20;;;;;;;;;;5053321;28;20021;-71
2023/10/17 01:01:51;;;;;;;0.20;0.20;;;;;;;;;;5053178;28;20013;-71
2023/10/17 01:04:19;;;;;;;0.30;0.30;;;;;;;;;;5053055;28;20025;-70
2023/10/17 01:06:54;;;;;;;0.38;0.30;;;;;;;;;;5053055;28;20024;-71
2023/10/17 01:09:24;;;;;;;0.40;0.30;;;;;;;;;;5053145;28;20032;-70
2023/10/17 01:11:54;;;;;;;0.77;0.30;;;;;;;;;;5053092;28;20017;-71
2023/10/17 01:14:23;;;;;;;0.40;0.40;;;;;;;;;;5053216;28;20021;-71
2023/10/17 01:16:53;;;;;;;0.75;0.38;;;;;;;;;;5052617;28;20029;-71
2023/10/17 01:19:20;;;;;;;0.52;0.30;;;;;;;;;;5053205;28;20024;-71
2023/10/17 01:21:47;;;;;;;3.50;0.45;;;;;;;;;;5053511;28;20037;-71
2023/10/17 01:24:13;;;;;;;3.72;0.50;;;;;;;;;;5053127;28;20481;-71
2023/10/17 01:26:43;;;;;;;0.88;0.22;;;;;;;;;;5052983;28;20500;-71
2023/10/17 01:29:12;;;;;;;0.45;0.20;;;;;;;;;;5052779;28;20017;-71
2023/10/17 01:31:42;;;;;;;2.92;0.40;;;;;;;;;;5052486;28;20481;-71
2023/10/17 01:34:09;;;;;;;0.55;0.30;;;;;;;;;;5053087;28;20019;-71
2023/10/17 01:36:36;;;;;;;0.20;0.20;;;;;;;;;;5052725;28;20030;-71
2023/10/17 01:39:09;;;;;;;0.20;0.20;;;;;;;;;;5052752;28;20028;-71
2023/10/17 01:41:36;;;;;;;1.20;0.30;;;;;;;;;;5052560;28;20473;-71
2023/10/17 01:44:03;;;;;;;1.88;0.30;;;;;;;;;;5052404;28;20692;-71
2023/10/17 01:46:29;;;;;;;0.47;0.30;;;;;;;;;;5052510;28;20025;-70
2023/10/17 01:48:59;;;;;;;0.30;0.30;;;;;;;;;;5052564;28;20013;-71
2023/10/17 01:51:27;;;;;;;1.20;0.40;;;;;;;;;;5052696;28;20033;-71
2023/10/17 01:53:53;;;;;;;1.55;0.32;;;;;;;;;;5052785;28;20028;-71
2023/10/17 01:56:26;;;;;;;0.43;0.30;;;;;;;;;;5052323;28;20057;-71
2023/10/17 01:58:55;;;;;;;0.60;0.32;;;;;;;;;;5052538;28;20032;-70
2023/10/17 02:01:31;;;;;;;0.93;0.40;;;;;;;;;;5052784;28;20051;-70
2023/10/17 02:04:03;;;;;;;2.25;0.40;;;;;;;;;;5051195;28;20027;-71
2023/10/17 02:06:33;;;;;;;0.30;0.30;;;;;;;;;;5052312;28;20477;-71
2023/10/17 02:09:00;;;;;;;0.60;0.30;;;;;;;;;;5052269;28;20055;-71
2023/10/17 02:11:26;;;;;;;0.50;0.30;;;;;;;;;;5052473;28;20021;-70
2023/10/17 02:13:57;;;;;;;0.73;0.30;;;;;;;;;;5052263;28;20090;-70
2023/10/17 02:16:33;;;;;;;0.30;0.30;;;;;;;;;;5052638;28;20029;-71
2023/10/17 02:18:59;;;;;;;0.30;0.30;;;;;;;;;;5052520;28;20033;-70
2023/10/17 02:21:27;;;;;;;0.20;0.20;;;;;;;;;;5052511;28;20033;-71
2023/10/17 02:23:53;;;;;;;0.30;0.30;;;;;;;;;;5052361;28;20017;-71
2023/10/17 02:26:28;;;;;;;0.30;0.30;;;;;;;;;;5051296;28;20478;-70
2023/10/17 02:29:05;;;;;;;0.30;0.30;;;;;;;;;;5051778;28;20519;-70
2023/10/17 02:31:32;;;;;;;0.93;0.45;;;;;;;;;;5052161;28;20029;-71
2023/10/17 02:33:59;;;;;;;0.50;0.50;;;;;;;;;;5052181;28;20384;-71
2023/10/17 02:36:26;;;;;;;0.70;0.50;;;;;;;;;;5050907;28;20037;-70
2023/10/17 02:38:52;;;;;;;0.45;0.32;;;;;;;;;;5052444;28;20025;-71
2023/10/17 02:41:19;;;;;;;0.82;0.60;;;;;;;;;;5052021;28;20028;-71
2023/10/17 02:43:46;;;;;;;0.40;0.40;;;;;;;;;;5051999;28;20025;-71
2023/10/17 02:46:14;;;;;;;0.85;0.43;;;;;;;;;;5052303;28;20021;-71
2023/10/17 02:48:42;;;;;;;0.88;0.45;;;;;;;;;;5052245;28;20032;-70
2023/10/17 02:51:23;;;;;;;1.13;0.40;;;;;;;;;;5052213;28;20074;-71
2023/10/17 02:53:51;;;;;;;0.30;0.30;;;;;;;;;;5051910;28;20445;-71
2023/10/17 02:56:21;;;;;;;0.30;0.30;;;;;;;;;;5051690;28;20045;-71
2023/10/17 02:59:04;;;;;;;0.80;0.60;;;;;;;;;;5052267;28;20419;-71
2023/10/17 03:01:36;;;;;;;0.88;0.50;;;;;;;;;;5055873;28;20021;-71
2023/10/17 03:04:09;;;;;;;0.40;0.40;;;;;;;;;;5055438;28;20507;-71
2023/10/17 03:06:37;;;;;;;0.50;0.47;;;;;;;;;;5055477;28;20015;-71
2023/10/17 03:17:15;;;;;;;0.38;0.38;;;;;;;;;;5055140;28;20044;-70
2023/10/17 03:19:41;;;;;;;1.55;0.40;;;;;;;;;;5055217;28;20081;-71
2023/10/17 03:22:24;;;;;;;0.57;0.40;;;;;;;;;;5055169;28;20032;-70
2023/10/17 03:24:51;;;;;;;0.60;0.40;;;;;;;;;;5055374;28;20025;-70
2023/10/17 03:27:35;;;;;;;3.10;0.52;;;;;;;;;;5054602;28;20017;-71
2023/10/17 03:30:07;;;;;;;0.30;0.30;;;;;;;;;;5054993;28;20025;-71
2023/10/17 03:32:33;;;;;;;0.30;0.30;;;;;;;;;;5055314;28;20017;-71
2023/10/17 03:35:02;;;;;;;0.20;0.20;;;;;;;;;;5054797;28;20419;-71
2023/10/17 03:37:29;;;;;;;0.38;0.30;;;;;;;;;;5054914;28;20029;-71
2023/10/17 03:39:57;;;;;;;0.63;0.40;;;;;;;;;;5054373;28;20515;-71
2023/10/17 03:45:12;;;;;;;0.30;0.30;;;;;;;;;;5054665;28;20037;-71
2023/10/17 03:47:44;;;;;;;0.30;0.30;;;;;;;;;;5054691;28;20436;-71
2023/10/17 03:50:10;;;;;;;0.47;0.38;;;;;;;;;;5054758;28;20043;-70
2023/10/17 03:52:36;;;;;;;0.40;0.40;;;;;;;;;;5053483;28;20036;-71
2023/10/17 03:55:09;;;;;;;0.30;0.30;;;;;;;;;;5052963;28;20043;-71
2023/10/17 03:57:52;;;;;;;0.20;0.20;;;;;;;;;;5054530;28;20045;-70
2023/10/17 04:00:25;;;;;;;0.63;0.40;;;;;;;;;;5054611;28;20029;-71
2023/10/17 04:02:51;;;;;;;0.40;0.40;;;;;;;;;;5054502;28;20029;-71
2023/10/17 04:05:18;;;;;;;1.25;0.60;;;;;;;;;;5054165;28;20033;-71
2023/10/17 04:07:51;;;;;;;2.85;0.50;;;;;;;;;;5054296;28;20066;-71
2023/10/17 04:10:22;;;;;;;0.63;0.50;;;;;;;;;;5052946;28;20029;-71
2023/10/17 04:12:49;;;;;;;0.65;0.40;;;;;;;;;;5054456;28;20027;-70
2023/10/17 04:15:19;;;;;;;0.35;0.30;;;;;;;;;;5054523;28;20040;-71
2023/10/17 04:17:48;;;;;;;1.02;0.40;;;;;;;;;;5054080;28;20031;-71
2023/10/17 04:20:16;;;;;;;0.32;0.32;;;;;;;;;;5054078;28;20485;-71
2023/10/17 04:22:46;;;;;;;1.17;0.43;;;;;;;;;;5054155;28;20542;-71
2023/10/17 04:28:10;;;;;;;3.25;0.50;;;;;;;;;;5043756;28;20030;-70
2023/10/17 04:30:46;;;;;;;0.73;0.35;;;;;;;;;;5053890;28;20513;-71
2023/10/17 04:33:12;;;;;;;0.63;0.40;;;;;;;;;;5054096;28;20090;-70
2023/10/17 04:35:46;;;;;;;0.52;0.47;;;;;;;;;;5053683;28;20041;-71
2023/10/17 04:38:47;;;;;;;1.65;0.50;;;;;;;;;;5053410;28;20320;-71
2023/10/17 04:43:44;;;;;;;1.23;0.60;;;;;;;;;;5053767;28;20032;-71
2023/10/17 04:46:11;;;;;;;0.95;0.50;;;;;;;;;;5053783;28;20027;-70
2023/10/17 04:48:40;;;;;;;0.90;0.60;;;;;;;;;;5053742;28;20013;-71
2023/10/17 04:53:48;;;;;;;0.52;0.50;;;;;;;;;;5053284;28;20042;-71
2023/10/17 04:56:21;;;;;;;1.02;0.75;;;;;;;;;;5053319;28;20063;-71
2023/10/17 05:02:14;;;;;;;0.60;0.40;;;;;;;;;;5053579;28;20043;-71
2023/10/17 06:18:01;;;;;;;1.67;0.90;;;;;;;;;;4957401;28;20041;-71
2023/10/17 06:23:23;;;;;;;6.65;1.55;;;;;;;;;;4912840;29;20045;-71
2023/10/17 06:28:34;;;;;;;3.10;1.25;;;;;;;;;;4912496;29;20494;-71
2023/10/17 06:34:00;;;;;;;3.92;1.73;;;;;;;;;;4990887;28;20045;-69
2023/10/17 06:36:30;;;;;;;4.20;1.80;;;;;;;;;;5012128;28;20048;-71
2023/10/17 06:38:56;;;;;;;5.25;1.90;;;;;;;;;;4996694;28;20027;-71
2023/10/17 06:41:28;;;;;;;2.20;1.77;;;;;;;;;;5008128;28;20042;-71
2023/10/17 06:43:57;;;;;;;2.80;1.75;;;;;;;;;;4994864;28;20476;-71
2023/10/17 06:46:29;;;;;;;3.97;1.77;;;;;;;;;;5009922;28;20037;-71
2023/10/17 06:49:03;;;;;;;10.82;2.30;;;;;;;;;;4993058;28;20029;-71
2023/10/17 06:51:30;;;;;;;5.28;1.73;;;;;;;;;;4993521;28;20040;-71
2023/10/17 06:53:57;;;;;;;5.03;1.83;;;;;;;;;;4996237;28;20036;-71
2023/10/17 06:56:25;;;;;;;4.28;2.13;;;;;;;;;;4992923;28;20046;-71
2023/10/17 06:59:04;;;;;;;2.63;1.85;;;;;;;;;;4991185;28;20030;-71
2023/10/17 07:01:33;;;;;;;3.10;2.20;;;;;;;;;;5076549;28;20047;-71
2023/10/17 07:04:02;;;;;;;5.50;2.08;;;;;;;;;;5034464;28;20013;-71
2023/10/17 07:06:29;;;;;;;4.57;1.95;;;;;;;;;;5043230;28;20025;-71
2023/10/17 07:08:56;;;;;;;2.58;1.90;;;;;;;;;;5040287;28;20035;-71
2023/10/17 07:11:29;;;;;;;5.10;1.95;;;;;;;;;;5041707;28;20039;-71
2023/10/17 07:16:41;;;;;;;3.53;1.98;;;;;;;;;;5047275;28;20029;-71
2023/10/17 07:22:05;;;;;;;6.50;2.35;;;;;;;;;;5031656;28;20037;-71
2023/10/17 07:24:41;;;;;;;6.57;2.05;;;;;;;;;;5012349;28;20538;-71
2023/10/17 07:27:11;;;;;;;5.85;1.90;;;;;;;;;;5012489;28;20030;-70
2023/10/17 07:29:38;;;;;;;4.78;2.03;;;;;;;;;;5031662;28;20041;-71
2023/10/17 07:32:16;;;;;;;3.22;1.70;;;;;;;;;;5031326;28;20122;-71
2023/10/17 07:34:43;;;;;;;3.40;1.73;;;;;;;;;;5030019;28;20030;-71
2023/10/17 07:40:16;;;;;;;4.00;1.80;;;;;;;;;;5024468;28;20038;-71
2023/10/17 07:42:40;;;;;;;4.88;1.98;;;;;;;;;;5012182;28;20037;-71
2023/10/17 07:45:14;;;;;;;4.40;2.40;;;;;;;;;;5030102;28;20102;-70
2023/10/17 07:47:44;;;;;;;4.25;2.25;;;;;;;;;;5031289;28;20485;-70
2023/10/17 07:50:14;;;;;;;4.35;2.25;;;;;;;;;;5031799;28;20013;-71
2023/10/17 07:52:47;;;;;;;5.65;1.98;;;;;;;;;;5030117;28;20409;-70
2023/10/17 07:55:34;;;;;;;2.60;1.83;;;;;;;;;;5031566;28;20539;-69
2023/10/17 07:58:17;;;;;;;5.97;2.00;;;;;;;;;;5022381;28;20044;-70
2023/10/17 08:00:43;;;;;;;3.20;1.90;;;;;;;;;;5056068;28;20438;-69
2023/10/17 08:03:19;;;;;;;2.40;1.70;;;;;;;;;;5056366;28;20031;-69
2023/10/17 08:06:08;;;;;;;5.68;2.28;;;;;;;;;;5053319;28;20086;-69
2023/10/17 08:08:33;;;;;;;5.03;2.15;;;;;;;;;;5058731;28;20039;-70
2023/10/17 08:11:08;;;;;;;5.90;2.00;;;;;;;;;;5042515;28;20028;-71
2023/10/17 08:13:35;;;;;;;6.43;1.80;;;;;;;;;;5052670;28;20025;-71
2023/10/17 08:16:05;;;;;;;3.25;1.58;;;;;;;;;;5041953;28;20035;-70
2023/10/17 08:18:39;;;;;;;5.43;1.55;;;;;;;;;;5048355;28;20032;-71
2023/10/17 08:23:51;;;;;;;4.38;1.67;;;;;;;;;;5053082;28;20021;-70
2023/10/17 08:26:18;;;;;;;3.72;1.60;;;;;;;;;;5052979;28;20035;-69
2023/10/17 08:31:23;;;;;;;4.20;1.45;;;;;;;;;;5038046;28;20025;-71
2023/10/17 08:39:53;;;;;;;3.53;1.50;;;;;;;;;;5051089;28;20040;-71
2023/10/17 08:42:30;;;;;;;6.43;1.40;;;;;;;;;;5039097;28;20064;-70
2023/10/17 08:45:04;;;;;;;2.20;1.38;;;;;;;;;;5040713;28;20044;-69
2023/10/17 08:47:30;;;;;;;2.72;1.83;;;;;;;;;;5049781;28;20032;-71
2023/10/17 08:50:04;;;;;;;3.20;1.55;;;;;;;;;;5049804;28;20033;-70
2023/10/17 08:52:37;;;;;;;2.40;1.48;;;;;;;;;;5036056;28;20037;-71
2023/10/17 08:55:04;;;;;;;3.17;1.50;;;;;;;;;;5051501;28;20031;-70
2023/10/17 08:57:33;;;;;;;2.05;1.45;;;;;;;;;;5062929;28;20044;-69
2023/10/17 09:02:39;;;;;;;2.72;1.25;;;;;;;;;;5049871;28;20041;-69
2023/10/17 09:05:26;;;;;;;1.60;1.27;;;;;;;;;;5053518;28;20029;-71
2023/10/17 09:07:55;;;;;;;5.05;1.42;;;;;;;;;;5051342;28;20028;-70
2023/10/17 09:10:28;;;;;;;1.25;1.08;;;;;;;;;;5051581;28;20389;-69
2023/10/17 09:15:59;;;;;;;2.80;1.27;;;;;;;;;;5051607;28;20389;-71
2023/10/17 09:18:27;;;;;;;1.88;0.85;;;;;;;;;;5043732;28;20094;-70
2023/10/17 09:20:57;;;;;;;9.35;1.08;;;;;;;;;;5049769;28;20025;-71
2023/10/17 09:23:24;;;;;;;1.15;0.93;;;;;;;;;;5051197;28;20025;-71
2023/10/17 09:25:55;;;;;;;3.08;1.00;;;;;;;;;;5051065;28;20041;-69
2023/10/17 09:28:28;;;;;;;6.60;0.88;;;;;;;;;;5051398;28;20017;-69
2023/10/17 09:31:08;;;;;;;1.13;0.60;;;;;;;;;;5051672;28;20029;-69
2023/10/17 09:33:45;;;;;;;0.73;0.60;;;;;;;;;;5051894;28;20029;-69
2023/10/17 09:36:13;;;;;;;0.75;0.65;;;;;;;;;;5050627;28;20090;-71
2023/10/17 09:38:46;;;;;;;0.45;0.45;;;;;;;;;;5045197;28;20500;-71
2023/10/17 09:41:19;;;;;;;2.15;0.70;;;;;;;;;;5046411;28;20036;-71
2023/10/17 09:43:46;;;;;;;2.30;0.70;;;;;;;;;;5043009;28;20033;-69
2023/10/17 09:46:13;;;;;;;0.70;0.70;;;;;;;;;;5057273;28;20013;-69
2023/10/17 09:48:42;;;;;;;0.40;0.40;;;;;;;;;;5068449;28;20023;-69
2023/10/17 09:51:22;;;;;;;0.70;0.50;;;;;;;;;;5050874;28;20090;-71
2023/10/17 09:53:58;;;;;;;1.75;0.60;;;;;;;;;;5048880;28;20396;-70
2023/10/17 09:56:32;;;;;;;0.40;0.40;;;;;;;;;;5031356;28;20059;-71
2023/10/17 09:59:06;;;;;;;0.40;0.30;;;;;;;;;;5040115;28;20486;-71
2023/10/17 10:01:35;;;;;;;1.40;0.52;;;;;;;;;;5053043;28;20017;-69
2023/10/17 10:04:01;;;;;;;0.60;0.50;;;;;;;;;;5049940;28;20412;-71
2023/10/17 10:06:31;;;;;;;0.80;0.40;;;;;;;;;;5051411;28;20392;-71
2023/10/17 10:09:13;;;;;;;3.23;0.33;;;;;;;;;;5052249;28;20036;-71
2023/10/17 10:11:51;;;;;;;2.05;0.30;;;;;;;;;;5054868;28;20021;-71
2023/10/17 10:14:23;;;;;;;0.43;0.30;;;;;;;;;;5055407;28;20043;-71
2023/10/17 10:16:53;;;;;;;0.32;0.30;;;;;;;;;;5055258;28;20032;-71
2023/10/17 10:19:21;;;;;;;4.75;0.50;;;;;;;;;;5055415;28;20027;-71
2023/10/17 10:22:00;;;;;;;0.30;0.30;;;;;;;;;;5055396;28;20037;-71
2023/10/17 10:24:31;;;;;;;0.38;0.38;;;;;;;;;;5055239;28;20025;-71
2023/10/17 10:27:16;;;;;;;0.20;0.20;;;;;;;;;;5054770;28;20419;-71
2023/10/17 10:29:43;;;;;;;2.08;0.25;;;;;;;;;;5035185;28;20456;-71
2023/10/17 10:32:28;;;;;;;0.75;0.30;;;;;;;;;;5033880;28;20028;-71
2023/10/17 10:34:55;;;;;;;0.28;0.28;;;;;;;;;;5046368;28;20035;-71
2023/10/17 10:37:22;;;;;;;1.00;0.25;;;;;;;;;;5055287;28;20408;-71
2023/10/17 10:40:08;;;;;;;0.30;0.30;;;;;;;;;;5055023;28;20033;-71
2023/10/17 10:42:45;;;;;;;0.20;0.20;;;;;;;;;;5054666;28;20028;-71
2023/10/17 10:45:29;;;;;;;0.20;0.20;;;;;;;;;;5054841;28;20029;-71
2023/10/17 10:47:58;;;;;;;0.30;0.30;;;;;;;;;;5053809;28;20039;-72
2023/10/17 10:50:33;;;;;;;0.82;0.30;;;;;;;;;;5054892;28;20029;-71
2023/10/17 10:53:01;;;;;;;0.40;0.40;;;;;;;;;;5054844;28;20025;-71
2023/10/17 10:55:28;;;;;;;0.98;0.30;;;;;;;;;;5054674;28;20031;-71
2023/10/17 10:57:54;;;;;;;1.95;0.30;;;;;;;;;;5054551;28;20055;-71
2023/10/17 11:00:21;;;;;;;0.20;0.20;;;;;;;;;;5053285;28;20035;-71
2023/10/17 11:02:48;;;;;;;0.73;0.40;;;;;;;;;;5054448;28;20028;-72
2023/10/17 11:05:15;;;;;;;0.73;0.30;;;;;;;;;;5054545;28;20013;-71
2023/10/17 11:07:41;;;;;;;7.78;0.30;;;;;;;;;;5054309;28;20025;-71
2023/10/17 11:10:10;;;;;;;0.47;0.22;;;;;;;;;;5054371;28;20415;-71
2023/10/17 11:12:38;;;;;;;0.30;0.30;;;;;;;;;;5054954;28;20017;-71
2023/10/17 11:15:14;;;;;;;0.30;0.30;;;;;;;;;;5054613;28;20025;-71
2023/10/17 11:17:43;;;;;;;0.20;0.20;;;;;;;;;;5054503;28;20029;-71
2023/10/17 11:20:17;;;;;;;0.30;0.30;;;;;;;;;;5053792;28;20051;-71
2023/10/17 11:22:47;;;;;;;0.30;0.30;;;;;;;;;;5054760;28;20462;-71
2023/10/17 11:25:21;;;;;;;0.35;0.30;;;;;;;;;;5054322;28;20400;-72
2023/10/17 11:30:45;;;;;;;0.60;0.30;;;;;;;;;;5054014;28;20425;-71
2023/10/17 11:33:20;;;;;;;2.20;0.30;;;;;;;;;;5054329;28;20025;-71
2023/10/17 11:35:51;;;;;;;0.77;0.30;;;;;;;;;;5052634;28;20029;-72
2023/10/17 11:38:40;;;;;;;0.32;0.30;;;;;;;;;;5049859;28;20489;-72
2023/10/17 11:41:07;;;;;;;0.30;0.30;;;;;;;;;;5054348;28;20029;-71
2023/10/17 11:43:42;;;;;;;0.70;0.30;;;;;;;;;;5053901;28;20504;-71
2023/10/17 11:46:12;;;;;;;0.50;0.40;;;;;;;;;;5054324;28;20033;-71
2023/10/17 11:48:44;;;;;;;;;;;;;;;;;;5054760;28;20025;-72
2023/10/17 11:51:16;;;;;;;0.52;0.30;;;;;;;;;;5045416;28;19908;-70
2023/10/17 11:54:04;;;;;;;0.30;0.30;;;;;;;;;;5045505;28;20025;-71
2023/10/17 11:56:35;;;;;;;3.40;0.32;;;;;;;;;;5033672;28;20042;-69
2023/10/17 11:59:03;;;;;;;2.35;0.40;;;;;;;;;;5053561;28;20035;-70
2023/10/17 12:01:30;;;;;;;0.30;0.30;;;;;;;;;;5053499;28;20031;-71
2023/10/17 12:03:59;;;;;;;0.80;0.50;;;;;;;;;;5053517;28;20476;-71
2023/10/17 12:06:28;;;;;;;0.40;0.40;;;;;;;;;;5052300;28;20025;-72
2023/10/17 12:08:56;;;;;;;0.30;0.30;;;;;;;;;;5046968;28;20025;-72
2023/10/17 12:11:24;;;;;;;0.50;0.32;;;;;;;;;;5051276;28;20012;-72
2023/10/17 12:13:53;;;;;;;0.60;0.40;;;;;;;;;;5038299;28;20520;-72
2023/10/17 12:16:23;;;;;;;0.30;0.30;;;;;;;;;;5033024;28;20034;-72
2023/10/17 12:18:51;;;;;;;0.37;0.37;;;;;;;;;;5041778;28;20029;-72
2023/10/17 12:21:18;;;;;;;0.73;0.52;;;;;;;;;;5033238;28;20025;-72
2023/10/17 12:23:45;;;;;;;1.05;0.50;;;;;;;;;;5063639;28;20090;-72
2023/10/17 12:26:14;;;;;;;4.97;0.52;;;;;;;;;;5052732;28;20496;-72
2023/10/17 12:28:41;;;;;;;3.75;0.57;;;;;;;;;;5050086;28;20032;-72
2023/10/17 12:31:10;;;;;;;2.50;0.75;;;;;;;;;;5051091;28;20058;-71
2023/10/17 12:33:37;;;;;;;0.85;0.50;;;;;;;;;;5049001;28;20025;-72
2023/10/17 12:36:05;;;;;;;2.10;0.80;;;;;;;;;;5051736;28;20033;-72
2023/10/17 12:38:34;;;;;;;3.60;0.50;;;;;;;;;;5052123;28;20070;-71
2023/10/17 12:41:06;;;;;;;1.73;0.73;;;;;;;;;;5052475;28;20515;-72
2023/10/17 12:43:34;;;;;;;3.75;0.70;;;;;;;;;;5054815;28;20029;-71
2023/10/17 12:46:00;;;;;;;3.65;0.70;;;;;;;;;;5049898;28;20028;-71
2023/10/17 12:48:27;;;;;;;3.13;0.70;;;;;;;;;;5051897;28;20029;-71
2023/10/17 12:50:53;;;;;;;4.22;0.82;;;;;;;;;;5043302;28;20505;-72
2023/10/17 12:53:19;;;;;;;1.20;0.85;;;;;;;;;;5033887;28;20041;-71
2023/10/17 12:55:46;;;;;;;2.30;0.90;;;;;;;;;;5044370;28;20040;-71
2023/10/17 12:58:12;;;;;;;5.88;0.90;;;;;;;;;;5051103;28;20041;-71
2023/10/17 13:00:39;;;;;;;1.75;0.90;;;;;;;;;;5060028;28;20016;-71
2023/10/17 13:03:09;;;;;;;3.28;0.98;;;;;;;;;;5045570;28;20021;-69
2023/10/17 13:05:37;;;;;;;2.47;1.00;;;;;;;;;;5040928;28;20029;-70
2023/10/17 13:08:04;;;;;;;4.40;1.08;;;;;;;;;;5050491;28;20033;-71
2023/10/17 13:10:31;;;;;;;3.75;1.17;;;;;;;;;;5051825;28;20384;-71
2023/10/17 13:12:58;;;;;;;6.50;1.02;;;;;;;;;;5050638;28;20036;-70
2023/10/17 13:15:25;;;;;;;4.68;1.42;;;;;;;;;;5052089;28;20039;-71
2023/10/17 13:18:00;;;;;;;2.72;1.08;;;;;;;;;;5052323;28;20035;-71
2023/10/17 13:20:31;;;;;;;3.17;1.20;;;;;;;;;;5038847;28;20047;-71
2023/10/17 13:23:04;;;;;;;2.25;1.08;;;;;;;;;;5040615;28;20375;-71
2023/10/17 13:25:34;;;;;;;3.97;1.17;;;;;;;;;;5049073;28;20074;-72
2023/10/17 13:28:02;;;;;;;3.47;1.30;;;;;;;;;;5050744;28;20029;-72
2023/10/17 13:30:29;;;;;;;5.10;1.25;;;;;;;;;;5049386;28;20025;-71
2023/10/17 13:32:55;;;;;;;3.85;1.23;;;;;;;;;;5051514;28;20025;-71
2023/10/17 13:35:22;;;;;;;4.25;1.10;;;;;;;;;;5049829;28;20025;-70
2023/10/17 13:37:52;;;;;;;3.90;1.60;;;;;;;;;;5035964;28;20037;-71
2023/10/17 13:40:21;;;;;;;3.75;1.25;;;;;;;;;;5033377;28;20022;-71
2023/10/17 13:42:52;;;;;;;4.13;1.10;;;;;;;;;;5035222;28;20043;-71
2023/10/17 13:45:21;;;;;;;;;;;;;;;;;;5048100;28;20547;-71
2023/10/17 13:47:50;;;;;;;4.07;1.20;;;;;;;;;;5049007;28;19913;-72
2023/10/17 13:50:19;;;;;;;5.75;1.30;;;;;;;;;;5040271;28;20379;-72
2023/10/17 13:52:49;;;;;;;3.38;1.42;;;;;;;;;;5031436;28;20032;-72
2023/10/17 13:55:25;;;;;;;4.07;1.70;;;;;;;;;;5048583;28;20017;-71
2023/10/17 13:58:01;;;;;;;2.10;1.58;;;;;;;;;;5046605;28;20170;-71
2023/10/17 14:00:36;;;;;;;3.38;1.33;;;;;;;;;;5044171;28;20025;-72
2023/10/17 14:03:06;;;;;;;5.68;1.50;;;;;;;;;;5042557;28;20024;-71
2023/10/17 14:05:32;;;;;;;3.88;1.40;;;;;;;;;;5050195;28;20029;-72
2023/10/17 14:07:58;;;;;;;4.93;1.63;;;;;;;;;;5033197;28;20029;-72
2023/10/17 14:10:25;;;;;;;3.55;1.40;;;;;;;;;;5048562;28;20021;-71
2023/10/17 14:12:51;;;;;;;3.13;1.30;;;;;;;;;;5051260;28;20017;-72
2023/10/17 14:15:18;;;;;;;7.03;1.80;;;;;;;;;;5036017;28;20542;-72
2023/10/17 14:17:49;;;;;;;3.72;1.60;;;;;;;;;;5048842;28;20033;-72
2023/10/17 14:20:17;;;;;;;2.63;1.48;;;;;;;;;;5046773;28;20371;-71
2023/10/17 14:22:56;;;;;;;3.17;1.58;;;;;;;;;;5033309;28;20398;-71
2023/10/17 14:28:08;;;;;;;3.25;1.30;;;;;;;;;;5040226;28;20035;-71
2023/10/17 14:30:37;;;;;;;6.70;1.48;;;;;;;;;;5047413;28;20074;-72
2023/10/17 14:33:03;;;;;;;5.20;1.67;;;;;;;;;;5043084;28;20020;-71
2023/10/17 14:35:33;;;;;;;8.65;1.80;;;;;;;;;;5047707;28;20104;-70
2023/10/17 14:38:00;;;;;;;3.58;1.40;;;;;;;;;;5050722;28;20473;-71
2023/10/17 14:40:29;;;;;;;2.50;1.65;;;;;;;;;;5051721;28;20029;-71
2023/10/17 14:42:55;;;;;;;2.03;1.50;;;;;;;;;;5048911;28;20503;-72
2023/10/17 14:45:24;;;;;;;3.80;1.50;;;;;;;;;;5040332;28;20037;-72
2023/10/17 14:47:51;;;;;;;4.82;1.60;;;;;;;;;;5036335;28;20025;-71
2023/10/17 14:50:17;;;;;;;2.92;1.75;;;;;;;;;;5030733;28;20056;-71
2023/10/17 14:52:43;;;;;;;3.05;1.50;;;;;;;;;;5047213;28;20029;-71
2023/10/17 14:55:23;;;;;;;6.55;1.55;;;;;;;;;;5050568;28;20029;-71
2023/10/17 14:57:50;;;;;;;3.70;1.35;;;;;;;;;;5053097;28;20045;-71
2023/10/17 15:00:16;;;;;;;4.82;1.58;;;;;;;;;;5051979;28;20013;-71
2023/10/17 15:02:44;;;;;;;3.45;1.48;;;;;;;;;;5052640;28;20090;-71
2023/10/17 15:05:11;;;;;;;1.63;1.25;;;;;;;;;;5041432;28;20401;-71
2023/10/17 15:07:39;;;;;;;2.22;1.30;;;;;;;;;;5043795;28;20025;-71
2023/10/17 15:10:12;;;;;;;4.47;1.50;;;;;;;;;;5035079;28;20063;-71
2023/10/17 15:12:41;;;;;;;4.55;1.67;;;;;;;;;;5034926;28;20367;-71
2023/10/17 15:15:10;;;;;;;2.30;1.40;;;;;;;;;;5040854;28;20592;-71
2023/10/17 15:17:41;;;;;;;3.90;1.30;;;;;;;;;;5042347;28;20037;-71
2023/10/17 15:20:14;;;;;;;4.57;2.00;;;;;;;;;;5034548;28;20037;-71
2023/10/17 15:22:41;;;;;;;4.55;1.60;;;;;;;;;;5034672;28;20508;-71
2023/10/17 15:25:12;;;;;;;4.82;1.58;;;;;;;;;;5034609;28;20027;-71
2023/10/17 15:27:41;;;;;;;9.48;1.70;;;;;;;;;;5037722;28;20036;-71
2023/10/17 15:30:08;;;;;;;3.95;1.80;;;;;;;;;;5054611;28;20021;-71
2023/10/17 15:32:35;;;;;;;3.90;1.63;;;;;;;;;;5052703;28;20044;-71
2023/10/17 15:35:03;;;;;;;8.18;1.92;;;;;;;;;;5054177;28;20031;-71
2023/10/17 15:37:30;;;;;;;4.70;1.95;;;;;;;;;;5054148;28;20033;-71
2023/10/17 15:39:57;;;;;;;6.35;1.65;;;;;;;;;;5054474;28;20025;-71
2023/10/17 15:42:23;;;;;;;6.82;1.90;;;;;;;;;;5054174;28;20021;-71
2023/10/17 15:44:49;;;;;;;7.90;1.77;;;;;;;;;;5054340;28;20025;-71
2023/10/17 15:47:16;;;;;;;5.05;1.83;;;;;;;;;;5053863;28;20024;-71
2023/10/17 15:49:42;;;;;;;2.92;1.50;;;;;;;;;;5053839;28;20029;-71
2023/10/17 15:52:09;;;;;;;6.10;2.17;;;;;;;;;;5054209;28;20021;-71
2023/10/17 15:54:36;;;;;;;9.02;1.80;;;;;;;;;;5054168;28;20039;-71
2023/10/17 15:57:03;;;;;;;7.10;2.13;;;;;;;;;;5053689;28;20051;-71
2023/10/17 15:59:31;;;;;;;4.60;1.90;;;;;;;;;;5053534;28;20035;-71
2023/10/17 16:01:58;;;;;;;9.30;2.05;;;;;;;;;;5053373;28;20036;-70
2023/10/17 16:04:24;;;;;;;6.85;1.80;;;;;;;;;;5054228;28;20028;-71
2023/10/17 16:06:52;;;;;;;6.30;1.85;;;;;;;;;;5054061;28;20025;-71
2023/10/17 16:09:20;;;;;;;4.68;1.90;;;;;;;;;;5054143;28;20013;-71
2023/10/17 16:11:46;;;;;;;8.35;2.00;;;;;;;;;;5054523;28;20029;-71
2023/10/17 16:14:13;;;;;;;10.65;2.03;;;;;;;;;;5053725;28;20024;-71
2023/10/17 16:16:39;;;;;;;8.57;2.17;;;;;;;;;;5053945;28;20032;-71
2023/10/17 16:19:06;;;;;;;5.47;2.38;;;;;;;;;;5054286;28;20028;-71
2023/10/17 16:21:34;;;;;;;6.53;1.95;;;;;;;;;;5053904;28;20074;-71
2023/10/17 16:24:00;;;;;;;4.40;1.85;;;;;;;;;;5054225;28;20017;-71
2023/10/17 16:26:26;;;;;;;5.82;2.20;;;;;;;;;;5053783;28;20028;-71
2023/10/17 16:28:54;;;;;;;7.10;2.45;;;;;;;;;;5053264;28;20023;-71
2023/10/17 16:31:23;;;;;;;6.50;2.33;;;;;;;;;;5054248;28;20025;-71
2023/10/17 16:33:49;;;;;;;5.18;2.60;;;;;;;;;;5054129;28;20024;-71
2023/10/17 16:36:16;;;;;;;4.20;2.58;;;;;;;;;;5053701;28;20036;-71
2023/10/17 16:38:45;;;;;;;5.60;2.30;;;;;;;;;;5053931;28;20021;-71
2023/10/17 16:41:12;;;;;;;6.47;2.72;;;;;;;;;;5053604;28;20050;-71
2023/10/17 16:43:41;;;;;;;6.18;3.08;;;;;;;;;;5053323;28;20028;-71
2023/10/17 16:46:11;;;;;;;5.15;2.67;;;;;;;;;;5053512;28;20031;-71
2023/10/17 16:48:38;;;;;;;4.68;2.55;;;;;;;;;;5053739;28;20013;-71
2023/10/17 16:51:04;;;;;;;8.35;3.13;;;;;;;;;;5053831;28;20033;-71
2023/10/17 16:53:31;;;;;;;9.20;3.38;;;;;;;;;;5053642;28;20017;-71
2023/10/17 16:55:57;;;;;;;7.88;3.10;;;;;;;;;;5053511;28;20033;-71
2023/10/17 16:58:24;;;;;;;8.18;3.25;;;;;;;;;;5052922;28;20044;-71
2023/10/17 17:00:51;;;;;;;5.75;3.28;;;;;;;;;;5053358;28;20037;-71
2023/10/17 17:03:17;;;;;;;10.20;3.25;;;;;;;;;;5052074;28;20017;-71
2023/10/17 17:05:45;;;;;;;8.73;3.97;;;;;;;;;;5053161;28;20044;-71
2023/10/17 17:08:12;;;;;;;6.55;3.00;;;;;;;;;;5053154;28;20033;-71
2023/10/17 17:10:41;;;;;;;9.35;3.20;;;;;;;;;;5053748;28;20032;-71
2023/10/17 17:13:08;;;;;;;7.32;3.05;;;;;;;;;;5052777;28;20047;-71
2023/10/17 17:15:34;;;;;;;7.30;3.25;;;;;;;;;;5052951;28;20516;-70
2023/10/17 17:18:00;;;;;;;5.43;2.80;;;;;;;;;;5052789;28;20031;-71
2023/10/17 17:20:27;;;;;;;10.07;3.17;;;;;;;;;;5053052;28;20017;-71
2023/10/17 17:22:53;;;;;;;6.55;3.08;;;;;;;;;;5053049;28;20021;-71